createdAt,value
2023-01-19T00:00:08.952Z,19.23
2023-01-19T00:02:36.449Z,19.80
2023-01-19T00:05:04.377Z,21.43
2023-01-19T00:07:33.545Z,18.33
2023-01-19T00:10:01.116Z,21.77
2023-01-19T00:12:28.623Z,18.60
2023-01-19T00:14:56.436Z,19.03
2023-01-19T00:17:24.033Z,22.13
2023-01-19T00:19:51.588Z,17.30
2023-01-19T00:22:19.120Z,19.63
2023-01-19T00:24:48.039Z,20.27
2023-01-19T00:27:15.847Z,22.60
2023-01-19T00:29:43.391Z,19.67
2023-01-19T00:32:10.935Z,19.13
2023-01-19T00:34:42.651Z,21.80
2023-01-19T00:37:10.613Z,20.43
2023-01-19T00:39:38.616Z,20.73
2023-01-19T00:42:24.940Z,18.33
2023-01-19T00:44:52.610Z,21.40
2023-01-19T00:47:20.106Z,20.27
2023-01-19T00:49:47.676Z,23.90
2023-01-19T00:52:15.220Z,19.93
2023-01-19T00:54:42.931Z,18.97
2023-01-19T00:57:12.022Z,19.97
2023-01-19T00:59:39.548Z,19.37
2023-01-19T01:02:07.338Z,20.93
2023-01-19T01:04:35.209Z,19.83
2023-01-19T01:07:02.697Z,21.33
2023-01-19T01:09:30.401Z,23.10
2023-01-19T01:11:58.101Z,18.77
2023-01-19T01:14:28.801Z,18.30
2023-01-19T01:16:56.475Z,16.67
2023-01-19T01:19:24.177Z,17.73
2023-01-19T01:21:51.669Z,19.87
2023-01-19T01:24:20.721Z,16.27
2023-01-19T01:26:48.508Z,18.97
2023-01-19T01:29:16.633Z,18.17
2023-01-19T01:31:45.620Z,20.07
2023-01-19T01:34:13.420Z,21.93
2023-01-19T01:36:41.710Z,17.17
2023-01-19T01:39:09.317Z,18.13
2023-01-19T01:41:37.287Z,25.30
2023-01-19T01:44:08.252Z,20.23
2023-01-19T01:46:36.070Z,20.03
2023-01-19T01:49:06.619Z,20.17
2023-01-19T01:51:35.410Z,17.97
2023-01-19T01:54:08.881Z,20.87
2023-01-19T01:56:38.435Z,19.63
2023-01-19T01:59:07.794Z,18.95
2023-01-19T02:01:53.629Z,19.63
2023-01-19T02:04:22.818Z,19.20
2023-01-19T02:07:08.076Z,19.53
2023-01-19T02:09:54.841Z,18.07
2023-01-19T02:12:40.766Z,20.40
2023-01-19T02:15:15.913Z,20.73
2023-01-19T02:17:43.654Z,17.87
2023-01-19T02:20:13.142Z,16.50
2023-01-19T02:22:45.277Z,20.47
2023-01-19T02:25:14.519Z,21.00
2023-01-19T02:27:42.566Z,18.48
2023-01-19T02:30:10.918Z,18.63
2023-01-19T02:32:38.605Z,19.75
2023-01-19T02:35:06.609Z,16.03
2023-01-19T02:37:37.403Z,18.02
2023-01-19T02:40:06.902Z,17.27
2023-01-19T02:42:38.039Z,18.80
2023-01-19T02:45:06.890Z,17.58
2023-01-19T02:47:38.666Z,18.93
2023-01-19T02:50:07.031Z,17.42
2023-01-19T02:52:34.714Z,19.23
2023-01-19T02:55:05.830Z,20.80
2023-01-19T02:57:43.614Z,20.50
2023-01-19T03:00:22.220Z,20.67
2023-01-19T03:02:56.917Z,17.27
2023-01-19T03:05:34.020Z,19.23
2023-01-19T03:08:07.746Z,18.03
2023-01-19T03:10:39.891Z,18.00
2023-01-19T03:13:11.858Z,20.10
2023-01-19T03:15:44.359Z,18.57
2023-01-19T03:18:14.631Z,19.90
2023-01-19T03:20:42.967Z,19.83
2023-01-19T03:23:11.845Z,18.63
2023-01-19T03:25:41.640Z,17.67
2023-01-19T03:28:10.714Z,16.70
2023-01-19T03:30:40.790Z,20.08
2023-01-19T03:33:09.990Z,18.60
2023-01-19T03:35:39.778Z,20.13
2023-01-19T03:38:08.609Z,19.43
2023-01-19T03:40:36.720Z,17.60
2023-01-19T03:43:04.692Z,18.80
2023-01-19T03:45:34.536Z,15.20
2023-01-19T03:48:02.947Z,19.58
2023-01-19T03:50:31.220Z,15.67
2023-01-19T03:53:03.251Z,16.10
2023-01-19T03:55:30.999Z,18.07
2023-01-19T03:57:58.536Z,17.70
2023-01-19T04:00:26.081Z,15.23
2023-01-19T04:02:55.483Z,18.90
2023-01-19T04:05:23.236Z,18.03
2023-01-19T04:07:50.992Z,18.37
2023-01-19T04:10:18.687Z,17.83
2023-01-19T04:12:46.333Z,17.90
2023-01-19T04:15:14.350Z,18.40
2023-01-19T04:17:42.183Z,16.40
2023-01-19T04:20:11.593Z,17.37
2023-01-19T04:22:40.060Z,19.57
2023-01-19T04:25:08.314Z,16.17
2023-01-19T04:27:35.976Z,19.23
2023-01-19T04:30:04.612Z,15.68
2023-01-19T04:32:33.274Z,16.00
2023-01-19T04:35:00.868Z,18.10
2023-01-19T04:37:29.915Z,17.40
2023-01-19T04:39:57.498Z,20.87
2023-01-19T04:42:25.127Z,20.60
2023-01-19T04:44:52.680Z,18.48
2023-01-19T04:47:20.253Z,19.48
2023-01-19T04:49:47.790Z,23.63
2023-01-19T04:52:15.329Z,20.47
2023-01-19T04:54:44.215Z,16.80
2023-01-19T04:57:11.688Z,18.08
2023-01-19T04:59:39.392Z,18.70
2023-01-19T05:02:06.941Z,21.43
2023-01-19T05:04:34.447Z,19.13
2023-01-19T05:07:02.196Z,23.05
2023-01-19T05:09:29.733Z,20.30
2023-01-19T05:11:58.620Z,21.38
2023-01-19T05:14:26.489Z,22.00
2023-01-19T05:16:54.066Z,19.58
2023-01-19T05:19:21.939Z,23.03
2023-01-19T05:21:49.468Z,21.95
2023-01-19T05:24:17.120Z,20.98
2023-01-19T05:26:44.632Z,24.07
2023-01-19T05:29:13.728Z,20.95
2023-01-19T05:31:41.284Z,19.53
2023-01-19T05:34:11.721Z,23.30
2023-01-19T05:36:39.603Z,20.15
2023-01-19T05:39:07.191Z,20.27
2023-01-19T05:41:34.695Z,19.83
2023-01-19T05:44:02.231Z,23.93
2023-01-19T05:46:31.159Z,18.57
2023-01-19T05:49:01.630Z,20.50
2023-01-19T05:51:34.855Z,18.45
2023-01-19T05:54:02.732Z,22.38
2023-01-19T05:56:30.601Z,20.33
2023-01-19T05:58:58.149Z,20.02
2023-01-19T06:01:25.819Z,21.35
2023-01-19T06:03:54.788Z,20.50
2023-01-19T06:06:22.442Z,19.13
2023-01-19T06:08:50.079Z,17.98
2023-01-19T06:11:17.905Z,20.02
2023-01-19T06:13:47.568Z,22.70
2023-01-19T06:16:15.374Z,21.42
2023-01-19T06:18:42.918Z,20.17
2023-01-19T06:21:14.132Z,19.73
2023-01-19T06:23:41.692Z,18.63
2023-01-19T06:26:09.516Z,16.20
2023-01-19T06:28:37.137Z,19.93
2023-01-19T06:31:04.743Z,18.53
2023-01-19T06:33:33.159Z,20.53
2023-01-19T06:36:01.061Z,17.17
2023-01-19T06:38:30.003Z,18.13
2023-01-19T06:40:58.596Z,18.13
2023-01-19T06:43:27.067Z,19.50
2023-01-19T06:45:54.937Z,18.17
2023-01-19T06:48:22.852Z,21.70
2023-01-19T06:50:50.422Z,18.88
2023-01-19T06:53:20.028Z,19.70
2023-01-19T06:55:49.053Z,19.67
2023-01-19T06:58:16.804Z,18.27
2023-01-19T07:00:44.386Z,18.67
2023-01-19T07:03:18.909Z,19.55
2023-01-19T07:05:46.520Z,18.77
2023-01-19T07:08:15.586Z,20.23
2023-01-19T07:11:23.655Z,16.87
2023-01-19T07:13:31.964Z,15.93
2023-01-19T07:15:59.686Z,17.33
2023-01-19T07:18:27.322Z,17.67
2023-01-19T07:20:54.793Z,18.27
2023-01-19T07:23:22.358Z,17.40
2023-01-19T07:25:49.899Z,16.55
2023-01-19T07:28:17.797Z,18.67
2023-01-19T07:30:46.988Z,20.65
2023-01-19T07:33:14.496Z,18.75
2023-01-19T07:35:46.562Z,19.58
2023-01-19T07:38:14.074Z,19.25
2023-01-19T07:40:41.687Z,19.20
2023-01-19T07:43:09.192Z,16.70
2023-01-19T07:45:36.781Z,19.73
2023-01-19T07:48:05.899Z,18.48
2023-01-19T07:50:33.457Z,17.52
2023-01-19T07:53:05.642Z,19.50
2023-01-19T07:55:33.183Z,17.93
2023-01-19T07:58:00.700Z,17.13
2023-01-19T08:00:28.315Z,19.45
2023-01-19T08:03:00.002Z,17.20
2023-01-19T08:05:29.880Z,18.05
2023-01-19T08:07:58.488Z,18.88
2023-01-19T08:10:26.822Z,20.70
2023-01-19T08:12:54.463Z,19.13
2023-01-19T08:15:23.811Z,18.20
2023-01-19T08:17:58.131Z,20.05
2023-01-19T08:20:25.772Z,19.57
2023-01-19T08:22:59.926Z,18.87
2023-01-19T08:25:28.531Z,17.42
2023-01-19T08:27:57.365Z,19.20
2023-01-19T08:30:26.845Z,20.00
2023-01-19T08:32:54.993Z,21.55
2023-01-19T08:35:23.781Z,22.10
2023-01-19T08:37:51.357Z,21.88
2023-01-19T08:40:20.464Z,21.63
2023-01-19T08:42:48.170Z,20.83
2023-01-19T08:45:15.893Z,19.63
2023-01-19T08:47:43.464Z,23.85
2023-01-19T08:50:11.944Z,20.95
2023-01-19T08:52:39.508Z,21.63
2023-01-19T08:55:07.840Z,23.58
2023-01-19T08:57:36.803Z,20.60
2023-01-19T09:00:04.780Z,21.17
2023-01-19T09:02:32.464Z,20.38
2023-01-19T09:05:00.098Z,21.25
2023-01-19T09:07:29.456Z,25.23
2023-01-19T09:09:57.459Z,21.10
2023-01-19T09:12:25.212Z,24.67
2023-01-19T09:14:54.242Z,19.92
2023-01-19T09:17:21.742Z,21.52
2023-01-19T09:19:49.361Z,19.35
2023-01-19T09:22:17.048Z,22.85
2023-01-19T09:24:44.537Z,20.88
2023-01-19T09:27:12.158Z,19.45
2023-01-19T09:29:39.709Z,19.55
2023-01-19T09:32:09.111Z,21.45
2023-01-19T09:34:36.675Z,21.00
2023-01-19T09:37:04.737Z,21.48
2023-01-19T09:39:32.276Z,19.02
2023-01-19T09:42:03.643Z,18.58
2023-01-19T09:44:34.364Z,21.77
2023-01-19T09:47:03.637Z,19.53
2023-01-19T09:49:34.493Z,19.73
2023-01-19T09:52:02.214Z,19.52
2023-01-19T09:54:31.127Z,19.50
2023-01-19T09:56:58.692Z,18.70
2023-01-19T09:59:27.208Z,19.48
2023-01-19T10:02:02.927Z,21.05
2023-01-19T10:04:32.141Z,20.53
2023-01-19T10:07:10.301Z,20.05
2023-01-19T10:09:42.449Z,21.58
2023-01-19T10:12:13.122Z,23.15
2023-01-19T10:14:43.075Z,25.25
2023-01-19T10:17:15.308Z,21.60
2023-01-19T10:19:46.805Z,20.45
2023-01-19T10:22:20.401Z,21.00
2023-01-19T10:24:49.571Z,21.17
2023-01-19T10:27:18.597Z,21.33
2023-01-19T10:29:46.394Z,19.75
2023-01-19T10:32:17.051Z,21.17
2023-01-19T10:34:44.616Z,23.02
2023-01-19T10:37:18.162Z,19.40
2023-01-19T10:39:48.407Z,19.73
2023-01-19T10:42:16.654Z,19.03
2023-01-19T10:44:46.074Z,21.77
2023-01-19T10:47:16.537Z,18.40
2023-01-19T10:49:44.707Z,19.80
2023-01-19T10:52:20.645Z,20.20
2023-01-19T10:54:49.554Z,19.53
2023-01-19T10:57:22.247Z,19.97
2023-01-19T10:59:51.350Z,18.30
2023-01-19T11:02:20.226Z,19.90
2023-01-19T11:04:50.130Z,21.50
2023-01-19T11:07:20.513Z,19.13
2023-01-19T11:09:50.049Z,25.15
2023-01-19T11:12:18.505Z,23.53
2023-01-19T11:14:46.722Z,20.47
2023-01-19T11:17:19.836Z,21.52
2023-01-19T11:19:56.900Z,23.67
2023-01-19T11:22:27.590Z,19.10
2023-01-19T11:24:59.739Z,23.47
2023-01-19T11:27:27.895Z,21.20
2023-01-19T11:30:01.423Z,20.70
2023-01-19T11:32:29.123Z,24.30
2023-01-19T11:34:56.637Z,21.10
2023-01-19T11:37:28.609Z,21.90
2023-01-19T11:39:57.288Z,19.60
2023-01-19T11:42:26.767Z,18.17
2023-01-19T11:44:59.420Z,21.23
2023-01-19T11:47:28.956Z,16.30
2023-01-19T11:49:59.517Z,19.90
2023-01-19T11:52:30.410Z,19.45
2023-01-19T11:55:00.644Z,17.60
2023-01-19T11:57:29.477Z,19.30
2023-01-19T11:59:58.574Z,17.95
2023-01-19T12:02:29.646Z,18.70
2023-01-19T12:05:00.222Z,21.55
2023-01-19T12:07:30.410Z,18.60
2023-01-19T12:10:02.379Z,17.37
2023-01-19T12:12:33.297Z,19.63
2023-01-19T12:15:03.465Z,16.75
2023-01-19T12:17:32.891Z,18.48
2023-01-19T12:20:04.724Z,17.48
2023-01-19T12:22:36.347Z,16.02
2023-01-19T12:25:06.790Z,15.75
2023-01-19T12:27:40.698Z,15.40
2023-01-19T12:30:16.014Z,16.30
2023-01-19T12:32:44.011Z,15.30
2023-01-19T12:35:26.491Z,12.95
2023-01-19T12:37:54.457Z,14.93
2023-01-19T12:40:26.534Z,15.73
2023-01-19T12:42:58.624Z,13.77
2023-01-19T12:45:31.451Z,15.48
2023-01-19T12:47:59.325Z,15.85
2023-01-19T12:50:29.562Z,15.45
2023-01-19T12:52:58.996Z,16.17
2023-01-19T12:55:28.147Z,14.73
2023-01-19T12:58:02.029Z,14.77
2023-01-19T13:00:31.260Z,13.80
2023-01-19T13:03:00.032Z,14.88
2023-01-19T13:05:58.007Z,16.80
2023-01-19T13:08:31.110Z,14.50
2023-01-19T13:11:20.849Z,13.18
2023-01-19T13:14:06.957Z,13.48
2023-01-19T13:16:58.482Z,12.03
2023-01-19T13:19:33.137Z,11.27
2023-01-19T13:22:20.760Z,12.10
2023-01-19T13:25:09.152Z,12.20
2023-01-19T13:27:37.569Z,10.90
2023-01-19T13:30:10.731Z,12.35
2023-01-19T13:32:41.472Z,10.60
2023-01-19T13:35:14.477Z,11.35
2023-01-19T13:37:44.381Z,10.32
2023-01-19T13:40:19.560Z,9.88
2023-01-19T13:42:48.024Z,9.85
2023-01-19T13:45:24.900Z,9.57
2023-01-19T13:47:53.588Z,8.50
2023-01-19T13:50:22.554Z,9.38
2023-01-19T13:52:53.913Z,8.85
2023-01-19T13:55:23.241Z,9.57
2023-01-19T13:57:51.546Z,10.55
2023-01-19T14:00:21.197Z,9.82
2023-01-19T14:02:53.860Z,12.07
2023-01-19T14:05:23.528Z,13.00
2023-01-19T14:08:00.379Z,10.90
2023-01-19T14:10:31.140Z,9.98
2023-01-19T14:12:59.771Z,11.07
2023-01-19T14:15:28.363Z,10.15
2023-01-19T14:18:10.504Z,10.40
2023-01-19T14:20:38.239Z,9.73
2023-01-19T14:23:06.430Z,10.93
2023-01-19T14:25:36.127Z,11.15
2023-01-19T14:28:22.544Z,11.50
2023-01-19T14:30:56.661Z,13.80
2023-01-19T14:33:37.353Z,11.75
2023-01-19T14:36:27.315Z,10.80
2023-01-19T14:38:55.561Z,13.30
2023-01-19T14:41:25.520Z,13.63
2023-01-19T14:43:55.875Z,10.05
2023-01-19T14:46:24.450Z,10.52
2023-01-19T14:48:53.317Z,14.23
2023-01-19T14:51:22.812Z,10.80
2023-01-19T14:53:51.853Z,13.35
2023-01-19T14:56:28.120Z,10.55
2023-01-19T14:58:56.360Z,10.48
2023-01-19T15:01:24.227Z,9.65
2023-01-19T15:03:51.912Z,12.77
2023-01-19T15:06:21.401Z,8.43
2023-01-19T15:08:50.007Z,9.20
2023-01-19T15:11:24.029Z,8.13
2023-01-19T15:13:53.053Z,7.53
2023-01-19T15:16:21.787Z,11.55
2023-01-19T15:18:49.464Z,7.45
2023-01-19T15:21:19.505Z,7.70
2023-01-19T15:23:48.393Z,8.98
2023-01-19T15:26:17.087Z,8.98
2023-01-19T15:28:45.571Z,9.50
2023-01-19T15:31:16.658Z,10.00
2023-01-19T15:33:44.718Z,8.40
2023-01-19T15:36:17.982Z,7.47
2023-01-19T15:38:46.392Z,7.85
2023-01-19T15:41:14.605Z,8.05
2023-01-19T15:43:42.163Z,5.50
2023-01-19T15:46:10.272Z,6.88
2023-01-19T15:48:39.454Z,7.18
2023-01-19T15:51:07.004Z,6.53
2023-01-19T15:53:34.636Z,10.65
2023-01-19T15:56:02.165Z,7.88
2023-01-19T15:58:29.766Z,8.50
2023-01-19T16:00:58.915Z,6.68
2023-01-19T16:03:26.894Z,7.68
2023-01-19T16:05:55.946Z,8.40
2023-01-19T16:08:23.572Z,8.63
2023-01-19T16:10:51.081Z,7.50
2023-01-19T16:13:18.583Z,4.13
2023-01-19T16:15:46.372Z,4.70
2023-01-19T16:18:14.460Z,5.88
2023-01-19T16:20:42.051Z,5.07
2023-01-19T16:23:15.489Z,5.05
2023-01-19T16:25:43.601Z,8.02
2023-01-19T16:28:11.224Z,9.35
2023-01-19T16:30:38.965Z,6.47
2023-01-19T16:33:06.537Z,5.72
2023-01-19T16:35:36.339Z,8.73
2023-01-19T16:38:04.042Z,6.22
2023-01-19T16:40:32.977Z,4.32
2023-01-19T16:43:00.494Z,6.63
2023-01-19T16:45:31.500Z,2.60
2023-01-19T16:47:59.102Z,4.20
2023-01-19T16:50:26.654Z,5.00
2023-01-19T16:52:56.535Z,4.70
2023-01-19T16:55:24.283Z,3.83
2023-01-19T16:57:53.476Z,6.25
2023-01-19T17:00:21.375Z,5.10
2023-01-19T17:02:49.039Z,3.80
2023-01-19T17:05:16.737Z,5.77
2023-01-19T17:07:44.484Z,4.07
2023-01-19T17:10:12.481Z,3.10
2023-01-19T17:12:40.258Z,3.47
2023-01-19T17:15:09.957Z,3.73
2023-01-19T17:17:38.120Z,5.03
2023-01-19T17:20:06.392Z,5.10
2023-01-19T17:22:33.910Z,4.40
2023-01-19T17:25:01.432Z,5.37
2023-01-19T17:27:29.176Z,7.50
2023-01-19T17:29:56.810Z,4.70
2023-01-19T17:32:25.893Z,5.40
2023-01-19T17:34:53.559Z,4.70
2023-01-19T17:37:21.308Z,3.07
2023-01-19T17:39:48.907Z,3.85
2023-01-19T17:42:16.461Z,5.10
2023-01-19T17:44:44.098Z,4.83
2023-01-19T17:47:11.770Z,4.47
2023-01-19T17:49:40.593Z,5.03
2023-01-19T17:52:08.576Z,4.95
2023-01-19T17:54:36.155Z,4.07
2023-01-19T17:57:03.670Z,4.37
2023-01-19T17:59:32.536Z,3.60
2023-01-19T18:02:00.159Z,3.10
2023-01-19T18:04:27.869Z,3.85
2023-01-19T18:06:57.073Z,3.17
2023-01-19T18:09:24.752Z,3.23
2023-01-19T18:11:53.021Z,6.27
2023-01-19T18:14:20.764Z,4.10
2023-01-19T18:16:48.367Z,7.17
2023-01-19T18:19:16.254Z,5.13
2023-01-19T18:21:44.179Z,2.37
2023-01-19T18:24:13.336Z,3.80
2023-01-19T18:26:42.450Z,2.77
2023-01-19T18:29:10.307Z,4.95
2023-01-19T18:31:38.384Z,3.10
2023-01-19T18:34:06.435Z,8.20
2023-01-19T18:36:34.943Z,3.10
2023-01-19T18:39:02.611Z,6.83
2023-01-19T18:41:31.830Z,2.77
2023-01-19T18:44:00.130Z,3.10
2023-01-19T18:46:28.032Z,3.43
2023-01-19T18:48:56.016Z,5.20
2023-01-19T18:51:23.948Z,4.53
2023-01-19T18:53:52.475Z,2.93
2023-01-19T18:56:20.517Z,6.90
2023-01-19T18:58:50.305Z,6.57
2023-01-19T19:01:19.344Z,3.77
2023-01-19T19:03:47.118Z,7.00
2023-01-19T19:06:16.930Z,6.10
2023-01-19T19:08:44.713Z,4.13
2023-01-19T19:11:14.163Z,3.83
2023-01-19T19:13:42.378Z,5.30
2023-01-19T19:16:13.594Z,4.03
2023-01-19T19:18:44.488Z,5.27
2023-01-19T19:21:15.879Z,4.43
2023-01-19T19:23:44.044Z,3.40
2023-01-19T19:26:15.605Z,2.60
2023-01-19T19:28:47.802Z,4.57
2023-01-19T19:31:18.229Z,2.30
2023-01-19T19:33:46.231Z,4.97
2023-01-19T19:36:14.239Z,3.67
2023-01-19T19:38:42.911Z,3.93
2023-01-19T19:41:13.105Z,1.83
2023-01-19T19:43:41.633Z,1.83
2023-01-19T19:46:10.378Z,4.03
2023-01-19T19:48:39.703Z,3.63
2023-01-19T19:51:17.594Z,4.97
2023-01-19T19:53:45.946Z,3.90
2023-01-19T19:56:13.983Z,4.70
2023-01-19T19:58:42.956Z,3.10
2023-01-19T20:01:11.483Z,3.23
2023-01-19T20:03:41.246Z,3.37
2023-01-19T20:06:09.758Z,3.93
2023-01-19T20:08:37.429Z,2.47
2023-01-19T20:11:07.136Z,2.20
2023-01-19T20:13:35.567Z,7.53
2023-01-19T20:16:03.992Z,3.93
2023-01-19T20:18:32.055Z,5.77
2023-01-19T20:21:01.347Z,2.13
2023-01-19T20:23:28.982Z,2.33
2023-01-19T20:25:56.580Z,5.43
2023-01-19T20:28:24.275Z,6.60
2023-01-19T20:30:54.677Z,3.70
2023-01-19T20:33:22.930Z,3.47
2023-01-19T20:35:51.966Z,3.10
2023-01-19T20:38:20.971Z,3.00
2023-01-19T20:40:48.577Z,3.53
2023-01-19T20:43:16.662Z,3.27
2023-01-19T20:45:45.079Z,3.33
2023-01-19T20:48:12.800Z,6.30
2023-01-19T20:50:44.558Z,1.43
2023-01-19T20:53:12.723Z,3.33
2023-01-19T20:55:44.103Z,3.73
2023-01-19T20:58:12.269Z,5.77
2023-01-19T21:00:40.650Z,5.53
2023-01-19T21:03:08.309Z,3.40
2023-01-19T21:05:36.165Z,9.63
2023-01-19T21:08:03.904Z,3.63
2023-01-19T21:10:31.614Z,2.33
2023-01-19T21:13:00.585Z,5.13
2023-01-19T21:15:28.732Z,2.37
2023-01-19T21:17:57.272Z,2.50
2023-01-19T21:20:24.891Z,2.10
2023-01-19T21:22:52.566Z,5.33
2023-01-19T21:25:20.549Z,2.70
2023-01-19T21:27:48.176Z,5.57
2023-01-19T21:30:17.632Z,3.67
2023-01-19T21:32:45.204Z,4.80
2023-01-19T21:35:13.102Z,2.27
2023-01-19T21:37:40.923Z,3.63
2023-01-19T21:40:09.085Z,4.03
2023-01-19T21:42:36.644Z,1.23
2023-01-19T21:45:04.326Z,4.43
2023-01-19T21:47:35.159Z,2.00
2023-01-19T21:50:03.005Z,1.10
2023-01-19T21:52:30.867Z,3.23
2023-01-19T21:54:58.499Z,6.17
2023-01-19T21:57:26.321Z,2.40
2023-01-19T21:59:54.230Z,3.20
2023-01-19T22:02:37.677Z,1.63
2023-01-19T22:05:07.549Z,4.45
2023-01-19T22:07:35.064Z,2.00
2023-01-19T22:10:02.774Z,2.00
2023-01-19T22:12:30.419Z,1.73
2023-01-19T22:14:57.964Z,3.47
2023-01-19T22:17:25.483Z,1.50
2023-01-19T22:19:53.070Z,2.40
2023-01-19T22:22:22.052Z,2.07
2023-01-19T22:24:50.533Z,2.40
2023-01-19T22:27:18.319Z,3.00
2023-01-19T22:29:46.105Z,2.20
2023-01-19T22:32:13.687Z,2.63
2023-01-19T22:34:41.430Z,3.53
2023-01-19T22:37:09.012Z,2.53
2023-01-19T22:39:38.170Z,2.87
2023-01-19T22:42:05.762Z,4.10
2023-01-19T22:44:33.493Z,2.90
2023-01-19T22:47:01.146Z,1.10
2023-01-19T22:49:28.989Z,4.27
2023-01-19T22:51:57.218Z,4.97
2023-01-19T22:54:24.814Z,1.93
2023-01-19T22:56:53.847Z,7.43
2023-01-19T22:59:21.369Z,2.87
2023-01-19T23:01:50.131Z,3.07
2023-01-19T23:04:17.858Z,2.90
2023-01-19T23:06:46.829Z,4.72
2023-01-19T23:09:15.094Z,5.80
2023-01-19T23:11:43.371Z,2.27
2023-01-19T23:14:14.463Z,3.92
2023-01-19T23:16:42.276Z,2.93
2023-01-19T23:19:10.620Z,2.50
2023-01-19T23:21:38.127Z,5.20
2023-01-19T23:24:05.961Z,5.20
2023-01-19T23:26:37.868Z,4.97
2023-01-19T23:29:07.164Z,2.03
2023-01-19T23:31:37.067Z,2.33
2023-01-19T23:34:05.615Z,2.17
2023-01-19T23:36:33.863Z,2.43
2023-01-19T23:39:02.724Z,1.67
2023-01-19T23:41:31.020Z,1.40
2023-01-19T23:43:58.653Z,2.70
2023-01-19T23:46:26.452Z,6.00
2023-01-19T23:48:55.371Z,1.70
2023-01-19T23:51:23.719Z,3.67
2023-01-19T23:53:51.416Z,4.10
2023-01-19T23:56:20.664Z,4.53
2023-01-19T23:58:49.329Z,2.60
